createdAt,value
2022-08-03T00:00:35.954Z,4.13
2022-08-03T00:03:04.136Z,4.10
2022-08-03T00:05:33.347Z,3.80
2022-08-03T00:08:01.856Z,4.43
2022-08-03T00:10:30.554Z,4.63
2022-08-03T00:13:00.117Z,3.97
2022-08-03T00:15:28.263Z,4.50
2022-08-03T00:17:56.706Z,4.33
2022-08-03T00:20:25.714Z,4.00
2022-08-03T00:22:54.003Z,3.87
2022-08-03T00:25:22.381Z,4.80
2022-08-03T00:27:50.589Z,4.50
2022-08-03T00:30:20.723Z,4.13
2022-08-03T00:32:49.550Z,4.40
2022-08-03T00:35:36.371Z,3.90
2022-08-03T00:38:05.663Z,4.00
2022-08-03T00:40:34.459Z,4.60
2022-08-03T00:43:03.711Z,4.73
2022-08-03T00:45:35.703Z,4.40
2022-08-03T00:48:05.333Z,4.13
2022-08-03T00:50:37.268Z,4.47
2022-08-03T00:53:07.741Z,4.30
2022-08-03T00:55:38.049Z,4.40
2022-08-03T00:58:06.785Z,4.13
2022-08-03T01:00:39.733Z,4.30
2022-08-03T01:03:08.735Z,3.90
2022-08-03T01:05:48.878Z,3.93
2022-08-03T01:08:24.285Z,4.17
2022-08-03T01:11:02.758Z,4.67
2022-08-03T01:14:04.309Z,4.83
2022-08-03T01:16:45.617Z,4.33
2022-08-03T01:19:37.458Z,4.33
2022-08-03T01:22:29.551Z,4.10
2022-08-03T01:25:03.909Z,4.57
2022-08-03T01:27:44.319Z,3.90
2022-08-03T01:30:15.201Z,4.07
2022-08-03T01:33:01.047Z,4.13
2022-08-03T01:35:38.792Z,4.60
2022-08-03T01:38:12.522Z,4.30
2022-08-03T01:40:44.538Z,4.10
2022-08-03T01:44:01.255Z,7.43
2022-08-03T01:46:09.797Z,5.33
2022-08-03T01:48:39.058Z,5.00
2022-08-03T01:51:09.312Z,4.70
2022-08-03T01:53:39.869Z,4.37
2022-08-03T01:56:08.519Z,3.97
2022-08-03T01:58:38.154Z,4.00
2022-08-03T02:01:10.059Z,3.87
2022-08-03T02:03:59.701Z,4.10
2022-08-03T02:07:00.281Z,3.40
2022-08-03T02:09:22.114Z,3.93
2022-08-03T02:11:52.273Z,3.53
2022-08-03T02:14:22.252Z,3.53
2022-08-03T02:16:52.719Z,3.50
2022-08-03T02:19:21.447Z,4.10
2022-08-03T02:21:56.721Z,3.60
2022-08-03T02:24:29.599Z,4.10
2022-08-03T02:26:59.784Z,3.70
2022-08-03T02:29:40.353Z,3.50
2022-08-03T02:32:18.121Z,3.40
2022-08-03T02:34:50.056Z,3.63
2022-08-03T02:37:20.895Z,3.70
2022-08-03T02:39:52.014Z,3.67
2022-08-03T02:42:24.283Z,4.00
2022-08-03T02:44:56.747Z,3.30
2022-08-03T02:47:28.881Z,4.90
2022-08-03T02:50:18.444Z,3.83
2022-08-03T02:52:48.443Z,3.67
2022-08-03T02:55:18.350Z,5.60
2022-08-03T02:57:48.571Z,5.10
2022-08-03T03:00:27.309Z,3.60
2022-08-03T03:02:58.910Z,3.57
2022-08-03T03:05:53.567Z,3.80
2022-08-03T03:08:26.062Z,3.47
2022-08-03T03:10:56.502Z,4.27
2022-08-03T03:13:25.127Z,3.90
2022-08-03T03:15:55.429Z,4.00
2022-08-03T03:18:26.262Z,4.20
2022-08-03T03:20:55.028Z,4.07
2022-08-03T03:23:24.410Z,3.67
2022-08-03T03:25:55.987Z,3.50
2022-08-03T03:28:25.504Z,3.30
2022-08-03T03:30:54.145Z,5.37
2022-08-03T03:33:24.265Z,3.83
2022-08-03T03:35:52.894Z,3.90
2022-08-03T03:38:21.976Z,3.87
2022-08-03T03:40:50.263Z,3.50
2022-08-03T03:43:19.480Z,3.37
2022-08-03T03:45:48.683Z,3.57
2022-08-03T03:48:17.026Z,3.70
2022-08-03T03:50:47.180Z,3.47
2022-08-03T03:53:15.913Z,4.10
2022-08-03T03:55:59.210Z,3.83
2022-08-03T03:58:32.101Z,4.30
2022-08-03T04:01:00.921Z,3.97
2022-08-03T04:03:29.198Z,4.40
2022-08-03T04:06:21.687Z,4.00
2022-08-03T04:09:07.426Z,3.80
2022-08-03T04:11:40.541Z,3.63
2022-08-03T04:14:12.390Z,3.73
2022-08-03T04:16:44.196Z,5.80
2022-08-03T04:19:19.802Z,4.27
2022-08-03T04:21:57.472Z,3.53
2022-08-03T04:24:29.189Z,3.90
2022-08-03T04:26:58.909Z,5.80
2022-08-03T04:29:27.751Z,4.10
2022-08-03T04:31:56.932Z,5.40
2022-08-03T04:34:25.154Z,3.70
2022-08-03T04:37:00.174Z,4.23
2022-08-03T04:39:31.098Z,4.50
2022-08-03T04:42:08.111Z,4.50
2022-08-03T04:44:40.458Z,4.20
2022-08-03T04:47:09.248Z,4.30
2022-08-03T04:49:39.277Z,5.50
2022-08-03T04:52:10.872Z,4.07
2022-08-03T04:54:42.900Z,4.07
2022-08-03T04:57:22.512Z,5.00
2022-08-03T04:59:59.624Z,3.50
2022-08-03T05:02:30.312Z,6.70
2022-08-03T05:04:58.772Z,7.20
2022-08-03T05:07:36.455Z,4.60
2022-08-03T05:10:14.770Z,4.17
2022-08-03T05:12:45.334Z,3.77
2022-08-03T05:15:14.021Z,6.10
2022-08-03T05:17:42.715Z,5.60
2022-08-03T05:20:12.349Z,3.93
2022-08-03T05:22:42.016Z,3.70
2022-08-03T05:25:17.035Z,3.70
2022-08-03T05:27:47.514Z,6.83
2022-08-03T05:30:31.048Z,4.07
2022-08-03T05:33:02.447Z,4.47
2022-08-03T05:35:57.938Z,3.83
2022-08-03T05:38:23.840Z,4.60
2022-08-03T05:41:21.489Z,3.67
2022-08-03T05:43:45.363Z,4.00
2022-08-03T05:46:13.602Z,5.83
2022-08-03T05:48:42.430Z,5.23
2022-08-03T05:51:11.871Z,3.70
2022-08-03T05:53:41.929Z,3.87
2022-08-03T05:56:14.310Z,3.77
2022-08-03T05:58:44.569Z,3.57
2022-08-03T06:01:12.870Z,3.90
2022-08-03T06:03:41.180Z,3.40
2022-08-03T06:06:09.568Z,3.70
2022-08-03T06:08:38.203Z,4.50
2022-08-03T06:11:07.928Z,4.10
2022-08-03T06:13:36.624Z,3.60
2022-08-03T06:16:05.095Z,3.27
2022-08-03T06:18:33.322Z,5.03
2022-08-03T06:21:14.316Z,4.20
2022-08-03T06:23:53.128Z,3.60
2022-08-03T06:26:26.066Z,4.20
2022-08-03T06:28:54.994Z,4.23
2022-08-03T06:31:32.987Z,4.13
2022-08-03T06:34:34.351Z,4.43
2022-08-03T06:36:52.632Z,4.07
2022-08-03T06:39:23.404Z,3.50
2022-08-03T06:41:54.587Z,4.10
2022-08-03T06:44:23.898Z,3.97
2022-08-03T06:46:52.466Z,4.00
2022-08-03T06:49:20.667Z,3.27
2022-08-03T06:52:04.995Z,3.30
2022-08-03T06:54:36.722Z,3.50
2022-08-03T06:57:08.141Z,3.53
2022-08-03T07:00:08.022Z,3.93
2022-08-03T07:02:24.440Z,4.80
2022-08-03T07:04:56.583Z,4.03
2022-08-03T07:07:24.783Z,3.80
2022-08-03T07:09:57.126Z,3.83
2022-08-03T07:12:29.014Z,3.50
2022-08-03T07:15:01.223Z,4.10
2022-08-03T07:17:31.105Z,3.30
2022-08-03T07:19:59.974Z,3.80
2022-08-03T07:22:28.770Z,3.10
2022-08-03T07:24:57.781Z,3.90
2022-08-03T07:27:28.627Z,3.40
2022-08-03T07:29:57.427Z,4.50
2022-08-03T07:32:26.202Z,3.80
2022-08-03T07:34:59.929Z,3.93
2022-08-03T07:37:28.999Z,4.07
2022-08-03T07:39:57.189Z,3.80
2022-08-03T07:42:25.409Z,4.13
2022-08-03T07:44:55.276Z,3.33
2022-08-03T07:47:25.562Z,3.53
2022-08-03T07:50:03.406Z,3.80
2022-08-03T07:52:50.609Z,3.60
2022-08-03T07:55:20.402Z,3.27
2022-08-03T07:57:49.123Z,3.10
2022-08-03T08:00:20.449Z,3.50
2022-08-03T08:02:48.580Z,3.63
2022-08-03T08:05:16.731Z,3.90
2022-08-03T08:07:51.723Z,3.50
2022-08-03T08:10:20.296Z,3.37
2022-08-03T08:12:48.690Z,3.23
2022-08-03T08:15:18.468Z,3.80
2022-08-03T08:17:48.107Z,3.73
2022-08-03T08:20:22.473Z,4.07
2022-08-03T08:22:58.345Z,3.33
2022-08-03T08:25:30.259Z,3.10
2022-08-03T08:28:29.132Z,3.07
2022-08-03T08:30:51.345Z,3.70
2022-08-03T08:33:23.242Z,3.33
2022-08-03T08:35:53.606Z,3.40
2022-08-03T08:38:21.920Z,3.77
2022-08-03T08:40:51.033Z,3.40
2022-08-03T08:43:19.202Z,3.20
2022-08-03T08:45:50.873Z,3.83
2022-08-03T08:48:24.113Z,3.80
2022-08-03T08:50:55.207Z,3.63
2022-08-03T08:53:27.150Z,3.60
2022-08-03T08:55:59.999Z,3.43
2022-08-03T08:58:31.875Z,3.50
2022-08-03T09:01:01.599Z,3.57
2022-08-03T09:03:30.945Z,3.20
2022-08-03T09:06:01.382Z,3.30
2022-08-03T09:08:31.175Z,3.83
2022-08-03T09:10:59.390Z,3.20
2022-08-03T09:13:27.600Z,3.20
2022-08-03T09:18:52.206Z,2.97
2022-08-03T09:21:32.217Z,3.00
2022-08-03T09:24:05.392Z,3.43
2022-08-03T09:26:35.631Z,3.07
2022-08-03T09:29:11.193Z,3.10
2022-08-03T09:31:44.378Z,3.00
2022-08-03T09:34:16.256Z,3.37
2022-08-03T09:36:46.623Z,3.07
2022-08-03T09:39:16.294Z,3.30
2022-08-03T09:41:46.793Z,2.80
2022-08-03T09:44:25.699Z,3.37
2022-08-03T09:46:56.395Z,2.80
2022-08-03T09:49:26.354Z,2.73
2022-08-03T09:52:31.495Z,2.90
2022-08-03T09:54:44.728Z,3.23
2022-08-03T09:57:23.902Z,2.77
2022-08-03T10:00:03.016Z,3.03
2022-08-03T10:02:41.315Z,2.73
2022-08-03T10:05:19.681Z,2.87
2022-08-03T10:07:49.714Z,3.17
2022-08-03T10:10:29.597Z,3.20
2022-08-03T10:13:01.603Z,2.80
2022-08-03T10:16:22.238Z,2.77
2022-08-03T10:18:18.736Z,2.50
2022-08-03T10:20:53.138Z,2.80
2022-08-03T10:23:22.485Z,2.80
2022-08-03T10:25:55.832Z,2.97
2022-08-03T10:28:24.157Z,3.03
2022-08-03T10:30:54.518Z,2.80
2022-08-03T10:33:51.834Z,2.93
2022-08-03T10:36:15.203Z,2.50
2022-08-03T10:38:52.483Z,2.93
2022-08-03T10:41:22.036Z,4.13
2022-08-03T10:43:55.467Z,2.57
2022-08-03T10:46:23.575Z,2.50
2022-08-03T10:48:53.910Z,2.30
2022-08-03T10:51:24.272Z,2.70
2022-08-03T10:53:55.536Z,2.60
2022-08-03T10:57:04.878Z,2.70
2022-08-03T11:00:03.692Z,3.00
2022-08-03T11:03:07.328Z,2.90
2022-08-03T11:05:40.769Z,2.90
2022-08-03T11:08:30.960Z,3.00
2022-08-03T11:11:01.368Z,3.13
2022-08-03T11:13:33.402Z,3.10
2022-08-03T11:16:07.227Z,2.63
2022-08-03T11:18:37.796Z,3.00
2022-08-03T11:21:06.577Z,2.90
2022-08-03T11:24:03.421Z,3.13
2022-08-03T11:26:34.937Z,3.13
2022-08-03T11:29:28.002Z,4.70
2022-08-03T11:31:56.284Z,2.50
2022-08-03T11:34:25.038Z,3.00
2022-08-03T11:37:28.777Z,2.87
2022-08-03T11:40:02.690Z,3.17
2022-08-03T11:42:41.591Z,2.70
2022-08-03T11:45:10.921Z,2.50
2022-08-03T11:47:50.518Z,2.50
2022-08-03T11:50:21.310Z,2.90
2022-08-03T11:52:50.795Z,2.80
2022-08-03T11:55:21.994Z,3.00
2022-08-03T11:59:01.491Z,2.57
2022-08-03T12:00:40.360Z,2.63
2022-08-03T12:03:11.732Z,2.57
2022-08-03T12:05:51.335Z,2.77
2022-08-03T12:08:32.605Z,2.83
2022-08-03T12:11:06.610Z,2.70
2022-08-03T12:14:45.643Z,2.73
2022-08-03T12:16:29.587Z,2.70
2022-08-03T12:18:58.787Z,2.67
2022-08-03T12:21:27.053Z,2.73
2022-08-03T12:24:00.483Z,2.80
2022-08-03T12:26:31.648Z,2.93
2022-08-03T12:28:59.836Z,2.63
2022-08-03T12:31:28.003Z,4.37
2022-08-03T12:33:59.049Z,2.80
2022-08-03T12:36:28.068Z,3.13
2022-08-03T12:38:57.457Z,3.10
2022-08-03T12:41:34.251Z,3.33
2022-08-03T12:44:04.081Z,3.00
2022-08-03T12:46:35.341Z,2.90
2022-08-03T12:49:11.139Z,2.70
2022-08-03T12:51:56.886Z,3.13
2022-08-03T12:54:28.024Z,2.97
2022-08-03T12:57:01.644Z,2.70
2022-08-03T12:59:34.913Z,2.90
2022-08-03T13:02:16.253Z,2.90
2022-08-03T13:04:46.975Z,2.57
2022-08-03T13:07:16.322Z,3.00
2022-08-03T13:09:48.231Z,2.80
2022-08-03T13:12:20.859Z,2.87
2022-08-03T13:14:51.863Z,3.00
2022-08-03T13:17:20.520Z,3.00
2022-08-03T13:19:49.750Z,2.83
2022-08-03T13:22:19.534Z,3.00
2022-08-03T13:24:49.196Z,3.20
2022-08-03T13:28:01.200Z,3.00
2022-08-03T13:30:08.892Z,3.00
2022-08-03T13:32:37.403Z,2.70
2022-08-03T13:35:06.625Z,2.80
2022-08-03T13:37:35.045Z,2.67
2022-08-03T13:40:05.595Z,2.87
2022-08-03T13:42:36.634Z,2.67
2022-08-03T13:45:06.503Z,2.50
2022-08-03T13:47:34.579Z,3.07
2022-08-03T13:50:03.333Z,2.60
2022-08-03T13:52:33.371Z,2.83
2022-08-03T13:55:01.751Z,2.80
2022-08-03T13:58:02.298Z,3.33
2022-08-03T14:00:27.855Z,3.10
2022-08-03T14:03:09.163Z,2.60
2022-08-03T14:05:38.799Z,2.80
2022-08-03T14:08:07.800Z,2.93
2022-08-03T14:10:38.180Z,2.70
2022-08-03T14:13:07.256Z,2.90
2022-08-03T14:15:37.726Z,2.43
2022-08-03T14:18:07.495Z,2.67
2022-08-03T14:20:49.057Z,2.77
2022-08-03T14:23:19.795Z,2.60
2022-08-03T14:25:52.491Z,2.87
2022-08-03T14:28:23.471Z,2.70
2022-08-03T14:30:54.895Z,2.70
2022-08-03T14:33:23.346Z,3.10
2022-08-03T14:35:52.337Z,3.50
2022-08-03T14:38:20.698Z,2.53
2022-08-03T14:40:49.767Z,2.60
2022-08-03T14:43:20.228Z,2.70
2022-08-03T14:45:48.691Z,2.70
2022-08-03T14:50:27.908Z,2.93
2022-08-03T14:51:06.683Z,2.90
2022-08-03T14:53:35.847Z,2.67
2022-08-03T14:56:09.440Z,2.80
2022-08-03T14:58:39.185Z,2.50
2022-08-03T15:02:06.230Z,2.80
2022-08-03T15:03:58.079Z,2.30
2022-08-03T15:06:26.455Z,3.10
2022-08-03T15:11:43.020Z,2.77
2022-08-03T15:14:13.483Z,4.10
2022-08-03T15:16:42.993Z,3.00
2022-08-03T15:20:02.236Z,2.87
2022-08-03T15:22:01.532Z,3.00
2022-08-03T15:24:30.381Z,2.87
2022-08-03T15:26:58.849Z,3.27
2022-08-03T15:30:07.873Z,3.20
2022-08-03T15:32:15.792Z,2.87
2022-08-03T15:34:50.319Z,3.60
2022-08-03T15:37:19.085Z,3.83
2022-08-03T15:39:59.805Z,3.00
2022-08-03T15:42:30.366Z,3.00
2022-08-03T15:44:58.646Z,4.20
2022-08-03T15:47:26.939Z,3.20
2022-08-03T15:49:56.770Z,3.00
2022-08-03T15:52:24.972Z,3.30
2022-08-03T15:54:53.235Z,2.80
2022-08-03T15:57:21.606Z,2.93
2022-08-03T15:59:50.075Z,3.10
2022-08-03T16:02:18.212Z,3.00
2022-08-03T16:04:46.391Z,2.83
2022-08-03T16:07:16.278Z,2.97
2022-08-03T16:09:44.525Z,3.03
2022-08-03T16:12:16.133Z,3.13
2022-08-03T16:14:52.673Z,3.37
2022-08-03T16:17:22.276Z,3.47
2022-08-03T16:19:50.784Z,3.17
2022-08-03T16:22:23.143Z,5.70
2022-08-03T16:24:52.345Z,4.37
2022-08-03T16:27:37.582Z,3.97
2022-08-03T16:30:10.849Z,3.87
2022-08-03T16:32:39.823Z,2.90
2022-08-03T16:35:08.876Z,3.10
2022-08-03T16:37:39.487Z,3.30
2022-08-03T16:40:17.395Z,3.20
2022-08-03T16:42:48.131Z,2.77
2022-08-03T16:45:16.511Z,3.00
2022-08-03T16:47:44.916Z,3.03
2022-08-03T16:50:19.547Z,3.80
2022-08-03T16:52:49.639Z,4.07
2022-08-03T16:55:53.340Z,4.57
2022-08-03T16:58:07.121Z,4.20
2022-08-03T17:00:41.232Z,3.70
2022-08-03T17:03:18.867Z,3.30
2022-08-03T17:05:50.265Z,4.07
2022-08-03T17:08:26.489Z,4.07
2022-08-03T17:10:56.449Z,3.27
2022-08-03T17:13:27.819Z,3.30
2022-08-03T17:16:09.709Z,3.50
2022-08-03T17:18:42.263Z,3.77
2022-08-03T17:21:17.723Z,3.43
2022-08-03T17:23:54.849Z,3.33
2022-08-03T17:26:30.312Z,3.43
2022-08-03T17:29:12.579Z,4.00
2022-08-03T17:31:48.847Z,3.77
2022-08-03T17:34:18.716Z,6.90
2022-08-03T17:37:03.772Z,3.20
2022-08-03T17:42:29.548Z,2.83
2022-08-03T17:45:02.002Z,3.80
2022-08-03T17:47:41.865Z,3.70
2022-08-03T17:50:25.404Z,5.13
2022-08-03T17:56:38.593Z,3.00
2022-08-03T17:59:08.519Z,3.20
2022-08-03T18:02:12.298Z,3.43
2022-08-03T18:04:57.479Z,3.50
2022-08-03T18:07:40.656Z,3.30
2022-08-03T18:10:11.379Z,5.57
2022-08-03T18:12:51.794Z,3.43
2022-08-03T18:15:26.251Z,3.97
2022-08-03T18:18:02.124Z,3.20
2022-08-03T18:20:40.999Z,4.07
2022-08-03T18:23:24.866Z,5.73
2022-08-03T18:26:01.942Z,3.77
2022-08-03T18:28:32.704Z,4.10
2022-08-03T18:31:05.847Z,3.53
2022-08-03T18:34:19.338Z,4.73
2022-08-03T18:36:30.479Z,4.87
2022-08-03T18:39:01.787Z,3.27
2022-08-03T18:41:33.714Z,6.30
2022-08-03T18:44:06.589Z,4.13
2022-08-03T18:46:47.228Z,3.97
2022-08-03T18:49:29.670Z,3.97
2022-08-03T18:52:05.063Z,4.97
2022-08-03T18:55:01.050Z,3.80
2022-08-03T18:57:42.468Z,4.50
2022-08-03T19:00:15.785Z,4.03
2022-08-03T19:02:50.596Z,3.70
2022-08-03T19:05:21.461Z,3.93
2022-08-03T19:08:00.734Z,5.67
2022-08-03T19:10:34.145Z,4.60
2022-08-03T19:13:11.264Z,4.20
2022-08-03T19:15:51.476Z,4.30
2022-08-03T19:18:22.596Z,4.00
2022-08-03T19:20:53.287Z,4.20
2022-08-03T19:23:26.129Z,4.17
2022-08-03T19:26:03.822Z,5.17
2022-08-03T19:28:34.416Z,6.37
2022-08-03T19:31:06.320Z,6.20
2022-08-03T19:33:55.902Z,4.43
2022-08-03T19:36:27.527Z,4.20
2022-08-03T19:38:58.021Z,4.03
2022-08-03T19:41:41.875Z,4.67
2022-08-03T19:44:19.843Z,4.00
2022-08-03T19:46:55.151Z,5.00
2022-08-03T19:49:57.686Z,4.30
2022-08-03T19:52:20.807Z,4.37
2022-08-03T19:55:01.225Z,4.10
2022-08-03T19:57:31.784Z,4.23
2022-08-03T20:00:03.562Z,4.00
2022-08-03T20:02:34.250Z,3.77
2022-08-03T20:05:02.735Z,4.20
2022-08-03T20:07:32.838Z,3.83
2022-08-03T20:10:02.824Z,4.70
2022-08-03T20:12:35.655Z,5.10
2022-08-03T20:15:07.817Z,4.50
2022-08-03T20:17:54.631Z,5.03
2022-08-03T20:20:27.144Z,4.43
2022-08-03T20:22:58.177Z,4.60
2022-08-03T20:25:38.920Z,5.90
2022-08-03T20:28:13.446Z,4.70
2022-08-03T20:30:43.847Z,4.40
2022-08-03T20:33:18.824Z,5.13
2022-08-03T20:35:49.631Z,5.50
2022-08-03T20:38:19.222Z,3.83
2022-08-03T20:40:48.906Z,4.03
2022-08-03T20:43:19.930Z,4.83
2022-08-03T20:46:00.681Z,3.77
2022-08-03T20:48:38.331Z,4.37
2022-08-03T20:51:19.287Z,5.40
2022-08-03T20:53:56.918Z,4.40
2022-08-03T20:56:30.564Z,4.13
2022-08-03T20:59:03.993Z,4.23
2022-08-03T21:01:36.528Z,4.47
2022-08-03T21:07:00.759Z,4.57
2022-08-03T21:09:42.253Z,4.30
2022-08-03T21:12:17.940Z,3.90
2022-08-03T21:12:55.594Z,3.10
2022-08-03T21:13:07.968Z,4.00
2022-08-03T21:14:52.366Z,4.60
2022-08-03T21:17:39.971Z,5.43
2022-08-03T21:20:12.855Z,4.23
2022-08-03T21:22:46.079Z,3.63
2022-08-03T21:25:16.960Z,3.80
2022-08-03T21:27:45.924Z,3.93
2022-08-03T21:30:15.375Z,4.20
2022-08-03T21:32:45.468Z,4.43
2022-08-03T21:35:16.932Z,4.83
2022-08-03T21:37:46.405Z,4.40
2022-08-03T21:40:16.631Z,3.70
2022-08-03T21:42:46.318Z,4.17
2022-08-03T21:45:17.614Z,3.97
2022-08-03T21:47:48.431Z,3.90
2022-08-03T21:50:18.675Z,4.70
2022-08-03T21:52:48.843Z,4.27
2022-08-03T21:55:20.486Z,4.83
2022-08-03T21:57:53.578Z,4.47
2022-08-03T22:00:23.396Z,4.33
2022-08-03T22:02:55.985Z,4.13
2022-08-03T22:05:43.007Z,4.50
2022-08-03T22:08:12.422Z,4.63
2022-08-03T22:10:40.847Z,5.47
2022-08-03T22:13:08.970Z,4.17
2022-08-03T22:15:37.184Z,4.10
2022-08-03T22:18:05.984Z,4.13
2022-08-03T22:20:35.691Z,5.20
2022-08-03T22:23:07.205Z,4.80
2022-08-03T22:25:37.721Z,4.57
2022-08-03T22:28:08.806Z,5.07
2022-08-03T22:30:37.977Z,4.33
2022-08-03T22:33:11.530Z,4.07
2022-08-03T22:35:47.861Z,4.67
2022-08-03T22:38:17.205Z,4.37
2022-08-03T22:40:45.969Z,4.57
2022-08-03T22:43:14.514Z,4.57
2022-08-03T22:46:09.292Z,4.20
2022-08-03T22:48:40.698Z,4.53
2022-08-03T22:51:11.363Z,4.27
2022-08-03T22:53:41.386Z,3.90
2022-08-03T22:56:09.898Z,4.33
2022-08-03T22:58:38.254Z,4.30
2022-08-03T23:01:09.124Z,4.40
2022-08-03T23:03:59.763Z,5.27
2022-08-03T23:06:35.716Z,4.47
2022-08-03T23:09:06.931Z,4.57
2022-08-03T23:11:38.151Z,4.93
2022-08-03T23:14:15.151Z,4.70
2022-08-03T23:16:45.659Z,4.70
2022-08-03T23:19:17.191Z,4.90
2022-08-03T23:22:02.174Z,4.53
2022-08-03T23:24:34.791Z,4.77
2022-08-03T23:27:04.338Z,4.43
2022-08-03T23:29:34.748Z,4.60
2022-08-03T23:32:04.020Z,4.80
2022-08-03T23:34:50.754Z,6.40
2022-08-03T23:37:21.225Z,5.93
2022-08-03T23:39:50.250Z,6.80
2022-08-03T23:42:19.838Z,5.23
2022-08-03T23:44:48.385Z,4.83
2022-08-03T23:47:16.629Z,4.90
2022-08-03T23:49:45.304Z,4.70
2022-08-03T23:52:20.141Z,5.13
2022-08-03T23:55:02.280Z,4.70
2022-08-03T23:57:34.115Z,4.63
